Time;durP1;ratioP1;P1;durP2;ratioP2;P2;SDS_P1;SDS_P2;PMS_P1;PMS_P2;Temp;Humidity;BMP_temperature;BMP_pressure;BME280_temperature;BME280_humidity;BME280_pressure;Samples;Min_cycle;Max_cycle;Signal;HPM_P1;HPM_P2
2022/09/03 00:02:08;;;;;;;19.70;8.85;;;;;;;;;;3360927;42;20096;-61
2022/09/03 00:05:12;;;;;;;22.87;8.90;;;;;;;;;;3353779;42;20567;-59
2022/09/03 00:08:08;;;;;;;21.50;9.02;;;;;;;;;;3362472;42;20502;-60
2022/09/03 00:10:46;;;;;;;22.33;8.60;;;;;;;;;;3358762;42;20096;-62
2022/09/03 00:13:16;;;;;;;22.05;8.82;;;;;;;;;;3360736;42;20095;-58
2022/09/03 00:15:42;;;;;;;21.40;9.07;;;;;;;;;;3360436;42;20479;-60
2022/09/03 00:18:20;;;;;;;22.30;8.80;;;;;;;;;;3360763;42;20106;-62
2022/09/03 00:20:52;;;;;;;18.95;8.90;;;;;;;;;;3361359;42;20166;-61
2022/09/03 00:23:22;;;;;;;22.63;8.90;;;;;;;;;;3363389;42;20131;-58
2022/09/03 00:26:16;;;;;;;22.35;8.90;;;;;;;;;;3360839;42;20118;-59
2022/09/03 00:28:49;;;;;;;18.87;8.10;;;;;;;;;;3361515;42;20174;-59
2022/09/03 00:31:39;;;;;;;19.35;8.82;;;;;;;;;;3362055;42;20915;-61
2022/09/03 00:34:25;;;;;;;21.48;8.45;;;;;;;;;;3355196;42;20136;-57
2022/09/03 00:36:52;;;;;;;19.88;8.50;;;;;;;;;;3359032;42;20120;-61
2022/09/03 00:39:20;;;;;;;18.65;8.20;;;;;;;;;;3361771;42;20501;-61
2022/09/03 00:42:08;;;;;;;19.50;7.80;;;;;;;;;;3362329;42;20104;-60
2022/09/03 00:44:56;;;;;;;20.80;8.68;;;;;;;;;;3360218;42;20154;-61
2022/09/03 00:47:56;;;;;;;21.67;7.75;;;;;;;;;;3364506;42;20646;-59
2022/09/03 00:50:28;;;;;;;20.05;8.05;;;;;;;;;;3359212;42;20147;-58
2022/09/03 00:53:03;;;;;;;18.10;8.73;;;;;;;;;;3360753;42;20138;-62
2022/09/03 00:55:53;;;;;;;18.73;7.77;;;;;;;;;;3362688;42;20092;-58
2022/09/03 00:58:42;;;;;;;21.65;8.50;;;;;;;;;;3361828;42;20110;-59
2022/09/03 01:01:20;;;;;;;20.73;8.02;;;;;;;;;;3361253;42;20096;-60
2022/09/03 01:04:06;;;;;;;19.73;8.80;;;;;;;;;;3360644;42;20080;-58
2022/09/03 01:06:42;;;;;;;17.73;7.95;;;;;;;;;;3360742;42;20119;-57
2022/09/03 01:09:20;;;;;;;16.53;7.53;;;;;;;;;;3361686;42;20911;-60
2022/09/03 01:12:12;;;;;;;20.67;8.00;;;;;;;;;;3356231;42;20114;-62
2022/09/03 01:15:13;;;;;;;20.00;8.23;;;;;;;;;;3361597;42;20099;-61
2022/09/03 01:17:48;;;;;;;18.65;7.45;;;;;;;;;;3351815;42;20084;-61
2022/09/03 01:20:27;;;;;;;17.20;7.60;;;;;;;;;;3358101;42;20230;-58
2022/09/03 01:23:11;;;;;;;19.17;7.70;;;;;;;;;;3360095;42;20207;-60
2022/09/03 01:25:53;;;;;;;20.33;8.10;;;;;;;;;;3359918;42;20093;-60
2022/09/03 01:28:30;;;;;;;18.17;7.28;;;;;;;;;;3363094;42;20080;-59
2022/09/03 01:31:14;;;;;;;19.85;7.82;;;;;;;;;;3360845;42;20521;-62
2022/09/03 01:33:49;;;;;;;18.85;7.53;;;;;;;;;;3367243;42;20099;-59
2022/09/03 01:36:37;;;;;;;17.30;7.13;;;;;;;;;;3366149;42;20166;-59
2022/09/03 01:39:05;;;;;;;16.60;7.03;;;;;;;;;;3357433;42;20084;-61
2022/09/03 01:42:15;;;;;;;18.00;7.40;;;;;;;;;;3353256;42;20096;-60
2022/09/03 01:45:00;;;;;;;18.40;7.18;;;;;;;;;;3360503;42;20545;-59
2022/09/03 01:47:58;;;;;;;16.65;6.72;;;;;;;;;;3364855;42;20084;-60
2022/09/03 01:50:42;;;;;;;19.10;7.57;;;;;;;;;;3360667;42;20162;-60
2022/09/03 01:53:39;;;;;;;22.02;7.95;;;;;;;;;;3362586;42;20160;-60
2022/09/03 01:56:27;;;;;;;16.52;7.47;;;;;;;;;;3363920;42;20084;-60
2022/09/03 01:58:59;;;;;;;18.23;7.47;;;;;;;;;;3359718;42;20088;-59
2022/09/03 02:01:31;;;;;;;17.05;7.60;;;;;;;;;;3364771;42;20164;-62
2022/09/03 02:03:58;;;;;;;17.57;7.40;;;;;;;;;;3364871;42;20135;-59
2022/09/03 02:06:25;;;;;;;19.08;7.80;;;;;;;;;;3364525;42;20091;-59
2022/09/03 02:08:52;;;;;;;21.00;7.95;;;;;;;;;;3364431;42;20160;-60
2022/09/03 02:11:18;;;;;;;18.90;7.65;;;;;;;;;;3365963;42;20083;-58
2022/09/03 02:13:52;;;;;;;17.83;7.45;;;;;;;;;;3365937;42;20162;-59
2022/09/03 02:16:20;;;;;;;18.17;7.40;;;;;;;;;;3365423;42;20144;-60
2022/09/03 02:18:50;;;;;;;16.70;7.07;;;;;;;;;;3366266;42;20092;-62
2022/09/03 02:21:18;;;;;;;22.77;8.20;;;;;;;;;;3366057;42;20088;-61
2022/09/03 02:23:45;;;;;;;17.55;7.72;;;;;;;;;;3366061;42;20106;-60
2022/09/03 02:26:11;;;;;;;18.60;8.18;;;;;;;;;;3365747;42;20100;-59
2022/09/03 02:28:37;;;;;;;21.43;7.37;;;;;;;;;;3366018;42;20159;-63
2022/09/03 02:31:03;;;;;;;21.02;7.95;;;;;;;;;;3367462;42;20084;-62
2022/09/03 02:33:34;;;;;;;17.30;7.53;;;;;;;;;;3367294;42;20083;-63
2022/09/03 02:36:00;;;;;;;17.27;7.32;;;;;;;;;;3366103;42;20095;-59
2022/09/03 02:38:27;;;;;;;16.33;8.05;;;;;;;;;;3360241;42;20542;-59
2022/09/03 02:40:53;;;;;;;20.07;8.70;;;;;;;;;;3361127;42;20099;-61
2022/09/03 02:43:22;;;;;;;21.92;9.55;;;;;;;;;;3362409;42;20159;-61
2022/09/03 02:45:50;;;;;;;17.95;8.95;;;;;;;;;;3354748;42;20135;-60
2022/09/03 02:48:18;;;;;;;19.90;9.50;;;;;;;;;;3361545;42;20147;-62
2022/09/03 02:50:43;;;;;;;23.02;10.00;;;;;;;;;;3363015;42;20571;-59
2022/09/03 02:53:09;;;;;;;18.43;9.00;;;;;;;;;;3365318;42;20096;-60
2022/09/03 02:55:35;;;;;;;18.23;9.05;;;;;;;;;;3366701;42;20091;-60
2022/09/03 02:58:02;;;;;;;21.85;9.13;;;;;;;;;;3359577;42;20112;-60
2022/09/03 03:00:28;;;;;;;21.85;10.30;;;;;;;;;;3365377;42;20092;-60
2022/09/03 03:02:54;;;;;;;23.40;9.83;;;;;;;;;;3363902;42;20092;-60
2022/09/03 03:05:38;;;;;;;21.50;10.13;;;;;;;;;;3365707;42;20295;-62
2022/09/03 03:08:04;;;;;;;26.60;9.82;;;;;;;;;;3356099;42;20096;-61
2022/09/03 03:10:30;;;;;;;19.08;8.80;;;;;;;;;;3362889;42;20096;-61
2022/09/03 03:12:56;;;;;;;18.92;9.05;;;;;;;;;;3363773;42;20149;-61
2022/09/03 03:15:22;;;;;;;19.03;9.10;;;;;;;;;;3360993;42;20083;-61
2022/09/03 03:17:48;;;;;;;18.45;8.60;;;;;;;;;;3361486;42;20094;-60
2022/09/03 03:20:14;;;;;;;19.40;8.30;;;;;;;;;;3359994;42;20170;-61
2022/09/03 03:22:40;;;;;;;15.90;8.23;;;;;;;;;;3362962;42;20678;-62
2022/09/03 03:25:08;;;;;;;16.83;8.13;;;;;;;;;;3359067;42;20211;-61
2022/09/03 03:27:34;;;;;;;15.18;7.88;;;;;;;;;;3362849;42;20107;-60
2022/09/03 03:30:00;;;;;;;14.98;7.55;;;;;;;;;;3358028;42;20558;-59
2022/09/03 03:32:26;;;;;;;13.70;7.63;;;;;;;;;;3363177;42;20141;-60
2022/09/03 03:34:52;;;;;;;15.07;7.07;;;;;;;;;;3363542;42;20570;-61
2022/09/03 03:37:18;;;;;;;14.55;6.82;;;;;;;;;;3360596;42;20558;-61
2022/09/03 03:39:44;;;;;;;14.50;7.28;;;;;;;;;;3360813;42;20542;-61
2022/09/03 03:42:10;;;;;;;11.90;6.40;;;;;;;;;;3363134;42;20126;-60
2022/09/03 03:44:36;;;;;;;12.25;6.13;;;;;;;;;;3361326;42;20100;-60
2022/09/03 03:47:04;;;;;;;12.85;6.28;;;;;;;;;;3363159;42;20090;-63
2022/09/03 03:49:31;;;;;;;13.73;6.47;;;;;;;;;;3361867;42;20095;-63
2022/09/03 03:51:56;;;;;;;14.43;6.22;;;;;;;;;;3357976;42;20092;-61
2022/09/03 03:54:22;;;;;;;12.43;5.57;;;;;;;;;;3364616;42;20110;-61
2022/09/03 03:56:48;;;;;;;11.77;5.78;;;;;;;;;;3360010;42;20094;-63
2022/09/03 03:59:14;;;;;;;12.48;5.60;;;;;;;;;;3366506;42;20627;-59
2022/09/03 04:01:40;;;;;;;11.80;5.90;;;;;;;;;;3366419;42;20157;-61
2022/09/03 04:04:06;;;;;;;12.50;5.60;;;;;;;;;;3362102;42;20186;-63
2022/09/03 04:06:32;;;;;;;12.75;6.35;;;;;;;;;;3362832;42;20117;-61
2022/09/03 04:08:58;;;;;;;11.63;5.95;;;;;;;;;;3366422;42;21160;-63
2022/09/03 04:11:24;;;;;;;14.65;7.55;;;;;;;;;;3366389;42;20087;-62
2022/09/03 04:13:50;;;;;;;12.37;6.40;;;;;;;;;;3366650;42;20660;-60
2022/09/03 04:16:21;;;;;;;11.25;6.55;;;;;;;;;;3365029;42;20098;-60
2022/09/03 04:18:48;;;;;;;12.05;6.70;;;;;;;;;;3366778;42;20151;-64
2022/09/03 04:21:16;;;;;;;13.45;6.70;;;;;;;;;;3366433;42;20118;-59
2022/09/03 04:23:46;;;;;;;13.77;6.75;;;;;;;;;;3365493;42;20098;-61
2022/09/03 04:26:16;;;;;;;13.53;7.53;;;;;;;;;;3364664;42;20816;-62
2022/09/03 04:29:00;;;;;;;19.30;8.50;;;;;;;;;;3364720;42;20198;-63
2022/09/03 04:31:35;;;;;;;16.95;8.57;;;;;;;;;;3357859;42;20114;-62
2022/09/03 04:34:01;;;;;;;15.10;8.57;;;;;;;;;;3366211;42;20088;-60
2022/09/03 04:36:28;;;;;;;15.50;8.67;;;;;;;;;;3366016;42;20661;-62
2022/09/03 04:38:54;;;;;;;18.27;8.97;;;;;;;;;;3366048;42;20754;-61
2022/09/03 04:41:25;;;;;;;19.83;10.07;;;;;;;;;;3366365;42;20091;-63
2022/09/03 04:43:55;;;;;;;22.25;10.32;;;;;;;;;;3364434;42;20562;-62
2022/09/03 04:46:24;;;;;;;19.08;10.23;;;;;;;;;;3360622;42;20084;-61
2022/09/03 04:48:51;;;;;;;19.15;10.77;;;;;;;;;;3366389;42;20092;-66
2022/09/03 04:51:23;;;;;;;18.33;10.30;;;;;;;;;;3364806;42;20576;-61
2022/09/03 04:53:53;;;;;;;19.75;11.25;;;;;;;;;;3360352;42;20111;-63
2022/09/03 04:56:22;;;;;;;17.80;10.50;;;;;;;;;;3364966;42;20106;-60
2022/09/03 04:58:48;;;;;;;15.98;9.13;;;;;;;;;;3360800;42;20596;-59
2022/09/03 05:01:18;;;;;;;19.15;9.90;;;;;;;;;;3366429;42;20510;-60
2022/09/03 05:03:45;;;;;;;22.03;13.50;;;;;;;;;;3366267;42;20102;-60
2022/09/03 05:06:11;;;;;;;23.52;14.32;;;;;;;;;;3366160;42;20143;-60
2022/09/03 05:08:39;;;;;;;29.63;17.10;;;;;;;;;;3366213;42;20155;-59
2022/09/03 05:11:06;;;;;;;51.30;28.77;;;;;;;;;;3367834;42;20215;-61
2022/09/03 05:13:32;;;;;;;33.67;19.20;;;;;;;;;;3364547;42;20115;-60
2022/09/03 05:16:03;;;;;;;43.47;26.27;;;;;;;;;;3362623;42;20752;-59
2022/09/03 05:18:29;;;;;;;35.80;21.25;;;;;;;;;;3363578;42;20103;-60
2022/09/03 05:21:08;;;;;;;36.67;21.00;;;;;;;;;;3361967;42;20218;-62
2022/09/03 05:23:36;;;;;;;35.00;21.23;;;;;;;;;;3362188;42;20087;-61
2022/09/03 05:26:03;;;;;;;41.50;25.17;;;;;;;;;;3358468;42;20103;-62
2022/09/03 05:28:29;;;;;;;45.57;26.70;;;;;;;;;;3361020;42;20087;-61
2022/09/03 05:31:00;;;;;;;48.03;27.40;;;;;;;;;;3360959;42;20479;-60
2022/09/03 05:33:26;;;;;;;59.28;32.33;;;;;;;;;;3358299;42;20140;-61
2022/09/03 05:35:54;;;;;;;59.33;34.17;;;;;;;;;;3362266;42;20107;-62
2022/09/03 05:38:20;;;;;;;56.53;31.77;;;;;;;;;;3361601;42;20501;-60
2022/09/03 05:40:46;;;;;;;53.33;30.33;;;;;;;;;;3361771;42;20648;-60
2022/09/03 05:43:12;;;;;;;65.20;37.00;;;;;;;;;;3362534;42;20697;-59
2022/09/03 05:45:38;;;;;;;62.85;34.25;;;;;;;;;;3358621;42;20115;-60
2022/09/03 05:48:04;;;;;;;65.75;37.00;;;;;;;;;;3363095;42;20506;-59
2022/09/03 05:50:30;;;;;;;73.80;38.53;;;;;;;;;;3361817;42;20110;-61
2022/09/03 05:52:57;;;;;;;77.05;41.00;;;;;;;;;;3362241;42;20138;-61
2022/09/03 05:55:23;;;;;;;66.93;38.35;;;;;;;;;;3360995;42;20084;-61
2022/09/03 05:57:52;;;;;;;57.20;31.75;;;;;;;;;;3367128;42;20098;-59
2022/09/03 06:00:18;;;;;;;60.03;34.40;;;;;;;;;;3367189;42;20091;-61
2022/09/03 06:02:56;;;;;;;61.30;33.00;;;;;;;;;;3366812;42;20842;-60
2022/09/03 06:05:29;;;;;;;60.10;33.13;;;;;;;;;;3361443;42;20091;-61
2022/09/03 06:07:54;;;;;;;66.07;37.97;;;;;;;;;;3367634;42;20084;-60
2022/09/03 06:10:21;;;;;;;70.60;43.00;;;;;;;;;;3367371;42;20091;-60
2022/09/03 06:12:50;;;;;;;61.97;34.90;;;;;;;;;;3368465;42;20689;-60
2022/09/03 06:15:16;;;;;;;54.67;32.75;;;;;;;;;;3361911;42;20099;-60
2022/09/03 06:17:42;;;;;;;81.07;47.10;;;;;;;;;;3365892;42;20088;-60
2022/09/03 06:20:08;;;;;;;85.77;48.73;;;;;;;;;;3367229;42;20131;-62
2022/09/03 06:22:34;;;;;;;77.70;43.75;;;;;;;;;;3366996;42;20103;-61
2022/09/03 06:25:00;;;;;;;67.72;39.25;;;;;;;;;;3367140;42;20099;-60
2022/09/03 06:27:27;;;;;;;55.28;30.83;;;;;;;;;;3367174;42;20135;-60
2022/09/03 06:29:53;;;;;;;46.40;26.23;;;;;;;;;;3366498;42;20098;-60
2022/09/03 06:32:19;;;;;;;30.13;17.47;;;;;;;;;;3366962;42;20510;-60
2022/09/03 06:34:46;;;;;;;23.08;12.80;;;;;;;;;;3366565;42;20096;-62
2022/09/03 06:37:12;;;;;;;16.77;8.43;;;;;;;;;;3366467;42;20087;-61
2022/09/03 06:39:38;;;;;;;10.30;3.95;;;;;;;;;;3366650;42;20696;-60
2022/09/03 06:42:04;;;;;;;5.53;1.97;;;;;;;;;;3367145;42;20182;-60
2022/09/03 06:44:30;;;;;;;5.93;1.88;;;;;;;;;;3366503;42;20539;-60
2022/09/03 06:47:00;;;;;;;8.15;2.45;;;;;;;;;;3366966;42;20784;-61
2022/09/03 06:49:26;;;;;;;6.38;2.20;;;;;;;;;;3366769;42;20110;-61
2022/09/03 06:51:52;;;;;;;10.67;4.20;;;;;;;;;;3367611;42;20081;-62
2022/09/03 06:54:17;;;;;;;8.20;4.25;;;;;;;;;;3366758;42;20079;-61
2022/09/03 06:56:43;;;;;;;9.70;3.85;;;;;;;;;;3366849;42;20584;-61
2022/09/03 06:59:11;;;;;;;8.05;3.58;;;;;;;;;;3366356;42;20083;-60
2022/09/03 07:01:39;;;;;;;8.00;3.17;;;;;;;;;;3366458;42;20207;-59
2022/09/03 07:04:05;;;;;;;7.68;3.50;;;;;;;;;;3365340;42;20107;-57
2022/09/03 07:06:38;;;;;;;7.32;3.10;;;;;;;;;;3366307;42;20091;-59
2022/09/03 07:09:08;;;;;;;7.97;3.00;;;;;;;;;;3366710;42;20099;-60
2022/09/03 07:11:34;;;;;;;6.35;2.40;;;;;;;;;;3366391;42;20173;-61
2022/09/03 07:14:01;;;;;;;5.73;2.03;;;;;;;;;;3366940;42;20153;-60
2022/09/03 07:16:29;;;;;;;5.47;2.10;;;;;;;;;;3366313;42;20107;-60
2022/09/03 07:18:55;;;;;;;5.18;2.00;;;;;;;;;;3366285;42;20107;-60
2022/09/03 07:21:26;;;;;;;4.95;1.45;;;;;;;;;;3366697;42;20553;-61
2022/09/03 07:23:52;;;;;;;5.93;1.40;;;;;;;;;;3366428;42;20103;-60
2022/09/03 07:26:23;;;;;;;4.70;1.40;;;;;;;;;;3366636;42;20139;-61
2022/09/03 07:28:49;;;;;;;3.83;1.00;;;;;;;;;;3363248;42;20144;-61
2022/09/03 07:31:34;;;;;;;8.63;1.30;;;;;;;;;;3373017;42;20100;-59
2022/09/03 07:34:05;;;;;;;4.40;1.40;;;;;;;;;;3361807;42;20162;-60
2022/09/03 07:36:38;;;;;;;4.90;1.40;;;;;;;;;;3364242;42;20091;-60
2022/09/03 07:39:04;;;;;;;4.00;1.20;;;;;;;;;;3363804;42;20103;-59
2022/09/03 07:41:33;;;;;;;3.78;1.20;;;;;;;;;;3365136;42;20084;-61
2022/09/03 07:44:04;;;;;;;3.22;0.90;;;;;;;;;;3366085;42;20101;-60
2022/09/03 07:46:32;;;;;;;4.10;1.17;;;;;;;;;;3364581;42;20174;-61
2022/09/03 07:49:00;;;;;;;3.10;0.90;;;;;;;;;;3361915;42;20104;-60
2022/09/03 07:51:27;;;;;;;3.70;1.10;;;;;;;;;;3358559;42;20135;-60
2022/09/03 07:53:55;;;;;;;5.50;1.20;;;;;;;;;;3362326;42;20131;-58
2022/09/03 07:56:21;;;;;;;4.10;1.25;;;;;;;;;;3358796;42;20589;-59
2022/09/03 07:58:47;;;;;;;5.15;1.30;;;;;;;;;;3358973;42;20163;-59
2022/09/03 08:01:15;;;;;;;6.05;1.35;;;;;;;;;;3360006;42;20197;-61
2022/09/03 08:03:45;;;;;;;6.73;1.50;;;;;;;;;;3361074;42;20602;-63
2022/09/03 08:06:11;;;;;;;4.55;1.40;;;;;;;;;;3362872;42;20505;-64
2022/09/03 08:08:39;;;;;;;5.03;1.58;;;;;;;;;;3357100;42;20634;-63
2022/09/03 08:11:09;;;;;;;4.22;1.30;;;;;;;;;;3365610;42;20504;-63
2022/09/03 08:14:00;;;;;;;4.72;1.60;;;;;;;;;;3359299;42;20099;-63
2022/09/03 08:16:27;;;;;;;4.10;1.13;;;;;;;;;;3360898;42;20552;-63
2022/09/03 08:18:53;;;;;;;4.28;1.48;;;;;;;;;;3364655;42;20501;-64
2022/09/03 08:21:20;;;;;;;5.18;1.52;;;;;;;;;;3366053;42;20107;-64
2022/09/03 08:23:47;;;;;;;4.20;1.30;;;;;;;;;;3364407;42;20095;-65
2022/09/03 08:26:14;;;;;;;7.22;1.60;;;;;;;;;;3365975;42;20502;-65
2022/09/03 08:28:41;;;;;;;4.17;1.30;;;;;;;;;;3365737;42;20553;-65
2022/09/03 08:31:12;;;;;;;4.15;1.10;;;;;;;;;;3366704;42;20112;-65
2022/09/03 08:33:41;;;;;;;5.40;1.60;;;;;;;;;;3364689;42;20088;-65
2022/09/03 08:36:11;;;;;;;7.28;1.80;;;;;;;;;;3366096;42;20540;-63
2022/09/03 08:38:38;;;;;;;6.00;1.67;;;;;;;;;;3364553;42;20170;-63
2022/09/03 08:41:05;;;;;;;4.87;1.40;;;;;;;;;;3361071;42;20147;-63
2022/09/03 08:43:31;;;;;;;4.55;1.30;;;;;;;;;;3364240;42;20175;-63
2022/09/03 08:45:58;;;;;;;4.40;1.30;;;;;;;;;;3360176;42;20080;-63
2022/09/03 08:48:24;;;;;;;6.75;1.40;;;;;;;;;;3359911;42;20115;-61
2022/09/03 08:50:54;;;;;;;5.88;1.70;;;;;;;;;;3351594;42;20104;-64
2022/09/03 08:53:27;;;;;;;4.60;1.40;;;;;;;;;;3356768;42;20562;-64
2022/09/03 08:55:56;;;;;;;6.53;1.60;;;;;;;;;;3360098;42;20108;-64
2022/09/03 08:58:25;;;;;;;4.85;1.50;;;;;;;;;;3353253;42;20091;-66
2022/09/03 09:01:03;;;;;;;5.03;1.40;;;;;;;;;;3359595;42;20098;-64
2022/09/03 09:03:43;;;;;;;5.03;1.70;;;;;;;;;;3360308;42;20080;-64
2022/09/03 09:06:15;;;;;;;4.40;1.30;;;;;;;;;;3357680;42;20136;-64
2022/09/03 09:08:52;;;;;;;6.57;1.42;;;;;;;;;;3363968;42;20562;-64
2022/09/03 09:11:55;;;;;;;4.43;1.25;;;;;;;;;;3364452;42;20099;-64
2022/09/03 09:14:24;;;;;;;4.82;1.50;;;;;;;;;;3365639;42;20099;-64
2022/09/03 09:17:31;;;;;;;4.70;1.33;;;;;;;;;;3364348;42;20103;-64
2022/09/03 09:20:35;;;;;;;5.20;1.47;;;;;;;;;;3365229;42;20087;-64
2022/09/03 09:23:07;;;;;;;5.38;1.48;;;;;;;;;;3364420;42;20169;-63
2022/09/03 09:25:43;;;;;;;5.10;1.30;;;;;;;;;;3366342;42;20099;-65
2022/09/03 09:28:18;;;;;;;4.20;1.50;;;;;;;;;;3365987;42;20569;-64
2022/09/03 09:30:46;;;;;;;4.28;1.40;;;;;;;;;;3365972;42;20185;-65
2022/09/03 09:33:13;;;;;;;8.33;1.70;;;;;;;;;;3366058;42;20604;-63
2022/09/03 09:35:41;;;;;;;4.57;1.60;;;;;;;;;;3367377;42;20143;-64
2022/09/03 09:38:08;;;;;;;4.72;1.52;;;;;;;;;;3365632;42;20565;-64
2022/09/03 09:40:37;;;;;;;6.13;1.70;;;;;;;;;;3365838;42;20096;-63
2022/09/03 09:43:21;;;;;;;6.57;1.75;;;;;;;;;;3367513;42;20092;-64
2022/09/03 09:45:48;;;;;;;4.80;1.70;;;;;;;;;;3367365;42;20672;-64
2022/09/03 09:48:30;;;;;;;6.80;1.88;;;;;;;;;;3366029;42;20091;-65
2022/09/03 09:51:10;;;;;;;4.97;1.88;;;;;;;;;;3365976;42;20092;-63
2022/09/03 09:53:36;;;;;;;6.55;1.70;;;;;;;;;;3365890;42;20088;-65
2022/09/03 09:56:03;;;;;;;6.05;1.70;;;;;;;;;;3366132;42;20088;-63
2022/09/03 09:58:29;;;;;;;5.20;1.70;;;;;;;;;;3367189;42;20167;-64
2022/09/03 10:01:12;;;;;;;6.43;2.20;;;;;;;;;;3366095;42;20089;-63
2022/09/03 10:03:54;;;;;;;5.13;1.90;;;;;;;;;;3365733;42;20114;-65
2022/09/03 10:09:09;;;;;;;5.18;2.10;;;;;;;;;;3365593;42;20472;-65
2022/09/03 10:11:37;;;;;;;5.90;1.93;;;;;;;;;;3367288;42;20092;-63
2022/09/03 10:14:05;;;;;;;6.88;2.08;;;;;;;;;;3365774;42;20095;-63
2022/09/03 10:16:35;;;;;;;4.85;1.67;;;;;;;;;;3365446;42;20115;-64
2022/09/03 10:19:10;;;;;;;5.03;1.70;;;;;;;;;;3365549;42;20194;-63
2022/09/03 10:22:10;;;;;;;5.20;1.60;;;;;;;;;;3366682;42;20200;-63
2022/09/03 10:24:40;;;;;;;6.00;1.77;;;;;;;;;;3361271;42;20143;-63
2022/09/03 10:27:09;;;;;;;5.05;1.50;;;;;;;;;;3366380;42;20084;-63
2022/09/03 10:29:36;;;;;;;5.60;2.10;;;;;;;;;;3365556;42;20155;-60
2022/09/03 10:32:22;;;;;;;5.45;1.50;;;;;;;;;;3367078;42;20098;-59
2022/09/03 10:35:02;;;;;;;5.30;1.85;;;;;;;;;;3367443;42;20092;-59
2022/09/03 10:37:32;;;;;;;5.83;1.70;;;;;;;;;;3364079;42;20622;-59
2022/09/03 10:40:19;;;;;;;5.10;1.88;;;;;;;;;;3362021;42;20628;-60
2022/09/03 10:43:23;;;;;;;7.13;1.85;;;;;;;;;;3358188;42;20104;-63
2022/09/03 10:46:05;;;;;;;5.57;1.90;;;;;;;;;;3365381;42;20079;-59
2022/09/03 10:48:51;;;;;;;6.53;1.80;;;;;;;;;;3361858;42;20127;-62
2022/09/03 10:51:32;;;;;;;5.23;1.97;;;;;;;;;;3362980;42;20582;-61
2022/09/03 10:54:01;;;;;;;5.68;2.00;;;;;;;;;;3359931;42;20102;-60
2022/09/03 10:56:53;;;;;;;5.07;1.77;;;;;;;;;;3363449;42;20096;-63
2022/09/03 10:59:57;;;;;;;6.07;2.35;;;;;;;;;;3359818;42;20100;-59
2022/09/03 11:02:57;;;;;;;5.57;2.10;;;;;;;;;;3361209;42;20940;-58
2022/09/03 11:05:37;;;;;;;4.70;1.60;;;;;;;;;;3361093;42;20110;-58
2022/09/03 11:08:15;;;;;;;5.47;2.10;;;;;;;;;;3365693;42;20926;-61
2022/09/03 11:10:44;;;;;;;5.60;1.85;;;;;;;;;;3364849;42;20597;-60
2022/09/03 11:13:21;;;;;;;6.20;2.20;;;;;;;;;;3364917;42;20211;-61
2022/09/03 11:15:52;;;;;;;7.20;1.90;;;;;;;;;;3365091;42;20096;-60
2022/09/03 11:18:28;;;;;;;5.37;1.80;;;;;;;;;;3365059;42;20562;-60
2022/09/03 11:21:03;;;;;;;5.38;1.98;;;;;;;;;;3365043;42;20096;-59
2022/09/03 11:23:32;;;;;;;5.55;2.10;;;;;;;;;;3365138;42;20094;-60
2022/09/03 11:26:00;;;;;;;7.53;2.15;;;;;;;;;;3362446;42;20167;-61
2022/09/03 11:28:44;;;;;;;6.10;2.60;;;;;;;;;;3364610;42;20088;-59
2022/09/03 11:31:31;;;;;;;6.73;2.27;;;;;;;;;;3365785;42;20558;-60
2022/09/03 11:34:00;;;;;;;8.07;2.70;;;;;;;;;;3365580;42;20689;-59
2022/09/03 11:36:34;;;;;;;7.07;2.70;;;;;;;;;;3365585;42;20592;-59
2022/09/03 11:39:00;;;;;;;10.02;2.70;;;;;;;;;;3365064;42;20087;-60
2022/09/03 11:41:27;;;;;;;7.87;2.40;;;;;;;;;;3368748;42;20084;-61
2022/09/03 11:43:53;;;;;;;6.00;2.30;;;;;;;;;;3360521;42;20765;-58
2022/09/03 11:46:22;;;;;;;5.28;1.90;;;;;;;;;;3363339;42;20197;-60
2022/09/03 11:48:50;;;;;;;6.55;2.35;;;;;;;;;;3366275;42;20080;-58
2022/09/03 11:51:36;;;;;;;6.90;2.60;;;;;;;;;;3363039;42;20091;-63
2022/09/03 11:54:06;;;;;;;6.45;2.50;;;;;;;;;;3362413;42;20158;-58
2022/09/03 11:56:33;;;;;;;7.40;2.30;;;;;;;;;;3361357;42;20167;-61
2022/09/03 11:59:13;;;;;;;5.63;2.42;;;;;;;;;;3360272;42;20096;-59
2022/09/03 12:02:00;;;;;;;6.35;2.40;;;;;;;;;;3359866;42;20083;-60
2022/09/03 12:04:48;;;;;;;8.82;3.10;;;;;;;;;;3364624;42;20143;-61
2022/09/03 12:07:48;;;;;;;8.55;2.80;;;;;;;;;;3366193;42;20075;-58
2022/09/03 12:10:29;;;;;;;8.97;3.10;;;;;;;;;;3362089;42;20177;-60
2022/09/03 12:13:23;;;;;;;5.85;2.40;;;;;;;;;;3351909;42;20314;-58
2022/09/03 12:16:12;;;;;;;6.85;2.42;;;;;;;;;;3355570;42;20475;-59
2022/09/03 12:18:40;;;;;;;6.40;2.42;;;;;;;;;;3360842;42;20111;-60
2022/09/03 12:21:10;;;;;;;5.50;2.00;;;;;;;;;;3357262;42;20096;-61
2022/09/03 12:23:53;;;;;;;6.77;2.40;;;;;;;;;;3355525;42;20092;-59
2022/09/03 12:26:23;;;;;;;5.65;2.00;;;;;;;;;;3361023;42;20111;-59
2022/09/03 12:28:56;;;;;;;6.78;2.50;;;;;;;;;;3360748;42;20095;-61
2022/09/03 12:31:29;;;;;;;6.30;2.20;;;;;;;;;;3359642;42;20088;-61
2022/09/03 12:33:57;;;;;;;7.70;2.40;;;;;;;;;;3357987;42;20211;-60
2022/09/03 12:36:24;;;;;;;6.10;2.20;;;;;;;;;;3364421;42;20223;-61
2022/09/03 12:38:51;;;;;;;6.53;2.10;;;;;;;;;;3355457;42;20095;-60
2022/09/03 12:41:29;;;;;;;6.20;2.20;;;;;;;;;;3363820;42;20083;-60
2022/09/03 12:43:57;;;;;;;8.38;2.50;;;;;;;;;;3358420;42;20163;-60
2022/09/03 12:46:30;;;;;;;5.55;1.92;;;;;;;;;;3360766;42;20558;-60
2022/09/03 12:49:04;;;;;;;5.53;2.13;;;;;;;;;;3360413;42;20080;-60
2022/09/03 12:51:35;;;;;;;5.60;2.10;;;;;;;;;;3365488;42;20106;-60
2022/09/03 12:54:02;;;;;;;5.30;2.10;;;;;;;;;;3364181;42;20167;-59
2022/09/03 12:56:31;;;;;;;5.30;1.90;;;;;;;;;;3364182;42;20548;-59
2022/09/03 12:59:03;;;;;;;8.05;2.13;;;;;;;;;;3364299;42;20131;-59
2022/09/03 13:01:34;;;;;;;5.93;2.27;;;;;;;;;;3364297;42;20119;-60
2022/09/03 13:04:16;;;;;;;7.32;2.25;;;;;;;;;;3364136;42;20103;-59
2022/09/03 13:06:48;;;;;;;6.70;2.50;;;;;;;;;;3358678;42;20168;-58
2022/09/03 13:09:14;;;;;;;7.18;2.60;;;;;;;;;;3366688;42;20130;-59
2022/09/03 13:11:43;;;;;;;6.37;2.30;;;;;;;;;;3364113;42;20091;-58
2022/09/03 13:14:11;;;;;;;6.50;2.10;;;;;;;;;;3365422;42;20917;-60
2022/09/03 13:16:37;;;;;;;8.43;2.45;;;;;;;;;;3364481;42;20087;-59
2022/09/03 13:19:40;;;;;;;9.05;2.67;;;;;;;;;;3365486;42;20107;-60
2022/09/03 13:22:09;;;;;;;7.20;2.50;;;;;;;;;;3361544;42;20087;-59
2022/09/03 13:24:53;;;;;;;5.93;2.30;;;;;;;;;;3366782;42;20106;-60
2022/09/03 13:27:25;;;;;;;7.25;2.30;;;;;;;;;;3366797;42;20096;-62
2022/09/03 13:30:04;;;;;;;7.20;2.50;;;;;;;;;;3364208;42;20185;-59
2022/09/03 13:32:50;;;;;;;7.03;2.88;;;;;;;;;;3357067;42;20525;-60
2022/09/03 13:35:25;;;;;;;9.43;2.65;;;;;;;;;;3364305;42;20079;-60
2022/09/03 13:38:10;;;;;;;8.97;2.87;;;;;;;;;;3366484;42;20110;-58
2022/09/03 13:40:42;;;;;;;7.43;2.35;;;;;;;;;;3365652;42;20083;-59
2022/09/03 13:43:28;;;;;;;8.73;2.47;;;;;;;;;;3366160;42;20574;-61
2022/09/03 13:46:01;;;;;;;7.45;2.47;;;;;;;;;;3357293;42;20087;-60
2022/09/03 13:51:43;;;;;;;6.43;2.30;;;;;;;;;;3363857;42;20538;-60
2022/09/03 13:54:30;;;;;;;7.38;2.95;;;;;;;;;;3365576;42;20174;-62
2022/09/03 13:57:03;;;;;;;9.85;3.00;;;;;;;;;;3363991;42;20554;-58
2022/09/03 13:59:32;;;;;;;6.82;2.60;;;;;;;;;;3365275;42;20147;-57
2022/09/03 14:02:03;;;;;;;8.63;3.10;;;;;;;;;;3365328;42;20128;-61
2022/09/03 14:04:39;;;;;;;7.37;2.87;;;;;;;;;;3366174;42;20092;-58
2022/09/03 14:07:12;;;;;;;7.47;2.67;;;;;;;;;;3365021;42;20158;-60
2022/09/03 14:09:48;;;;;;;10.40;3.20;;;;;;;;;;3363927;42;20462;-58
2022/09/03 14:12:35;;;;;;;8.48;2.97;;;;;;;;;;3364668;42;20561;-57
2022/09/03 14:15:16;;;;;;;7.70;2.97;;;;;;;;;;3367030;42;20197;-61
2022/09/03 14:17:53;;;;;;;8.23;3.00;;;;;;;;;;3366948;42;20080;-59
2022/09/03 14:20:28;;;;;;;6.25;2.60;;;;;;;;;;3365413;42;20095;-61
2022/09/03 14:23:09;;;;;;;8.32;2.88;;;;;;;;;;3360208;42;20098;-60
2022/09/03 14:25:35;;;;;;;6.70;2.72;;;;;;;;;;3366056;42;20119;-59
2022/09/03 14:28:19;;;;;;;8.63;3.10;;;;;;;;;;3367696;42;20186;-58
2022/09/03 14:31:05;;;;;;;8.67;2.70;;;;;;;;;;3363744;42;20548;-60
2022/09/03 14:33:53;;;;;;;8.20;2.60;;;;;;;;;;3365934;42;20143;-57
2022/09/03 14:36:28;;;;;;;8.13;3.10;;;;;;;;;;3367760;42;20131;-60
2022/09/03 14:39:02;;;;;;;10.35;3.00;;;;;;;;;;3368061;42;20126;-61
2022/09/03 14:41:50;;;;;;;7.63;3.10;;;;;;;;;;3366577;42;20139;-62
2022/09/03 14:44:44;;;;;;;8.53;2.90;;;;;;;;;;3365653;42;20114;-61
2022/09/03 14:47:22;;;;;;;8.18;3.33;;;;;;;;;;3366645;42;20114;-59
2022/09/03 14:50:13;;;;;;;8.10;2.88;;;;;;;;;;3358707;42;20124;-57
2022/09/03 14:53:23;;;;;;;8.85;2.75;;;;;;;;;;3366426;42;20087;-59
2022/09/03 14:56:17;;;;;;;9.68;3.55;;;;;;;;;;3341021;42;20095;-61
2022/09/03 14:58:58;;;;;;;9.87;3.60;;;;;;;;;;3364426;42;20155;-60
2022/09/03 15:01:28;;;;;;;7.97;2.50;;;;;;;;;;3359067;42;20554;-59
2022/09/03 15:04:06;;;;;;;7.40;2.90;;;;;;;;;;3361248;42;20202;-60
2022/09/03 15:06:40;;;;;;;8.18;2.70;;;;;;;;;;3362449;42;20107;-61
2022/09/03 15:09:33;;;;;;;7.60;2.90;;;;;;;;;;3366584;42;20165;-58
2022/09/03 15:12:13;;;;;;;23.27;3.17;;;;;;;;;;3364284;42;20088;-58
2022/09/03 15:14:46;;;;;;;8.40;2.83;;;;;;;;;;3364089;42;20095;-59
2022/09/03 15:17:31;;;;;;;6.10;2.60;;;;;;;;;;3363343;42;20099;-59
2022/09/03 15:20:29;;;;;;;8.60;2.80;;;;;;;;;;3366388;42;20158;-61